Accueil
METAR-TAF:

METAR-TAF

Aéroports :

Lydd, Angleterre

Aéroport de Lydd

latitude: 50-57N, longitude: 000-56E, altitude: 3 m

Observation

Le bulletin a été fait il y a 22 minutes, à 08:20 UTC
Vent 8 kt de nord-ouest
Température 17°C
Humidité 72%
Pression 1021 hPa
Visibilité 10 km ou plus
Quelques nuages à une hauteur de 2000 ft

METAR: EGMD 230820Z 32008KT 9999 FEW020 17/12 Q1021

Heure: 09:42 (08:42 UTC)

Prévision

Le bulletin a été fait il y a 41 minutes, à 08:01 UTC
Prévision valable du 23 à 09 UTC au 23 à 18 UTC
Vent 9 kt de ouest/nord-ouest
Visibilité 10 km ou plus
Quelques nuages à une hauteur de 3000 ft
Evoluant progressivement
du 23 à 10 UTC au 23 à 13 UTC
Vent 10 kt de sud-ouest

TAF: EGMD 230801Z 2309/2318 30009KT 9999 FEW030 BECMG 2310/2313 22010KT

Observations et prévisions météorologiques de plus de 4000 aéroports (messages METAR et TAF).

Les stations disponibles sont représentées par des disques jaunes et rouges sur la carte.

Passer la souris dessus pour voir le nom de la station.

Cliquer dessus pour voir les observations et prévisions météorologiques.

Pour changer de carte: cliquez sur les boutons verts avec une croix noire pour zoomer, sur le bouton vert avec un tiret pour effectuer un zoom arrière, ou sur les flèches vertes pour les cartes adjacentes.


METAR-TAF: